createdAt,value
2018-11-28T00:01:28.964Z,11.27
2018-11-28T00:04:00.421Z,8.83
2018-11-28T00:06:32.242Z,7.23
2018-11-28T00:09:03.906Z,12.73
2018-11-28T00:11:35.343Z,11.30
2018-11-28T00:14:07.425Z,6.87
2018-11-28T00:16:38.823Z,11.00
2018-11-28T00:19:09.895Z,8.40
2018-11-28T00:21:41.398Z,7.57
2018-11-28T00:24:12.358Z,12.27
2018-11-28T00:26:43.899Z,8.37
2018-11-28T00:29:14.926Z,11.20
2018-11-28T00:31:46.715Z,7.77
2018-11-28T00:34:17.706Z,8.17
2018-11-28T00:36:50.310Z,11.80
2018-11-28T00:39:21.535Z,7.97
2018-11-28T00:41:54.395Z,8.80
2018-11-28T00:44:25.526Z,9.27
2018-11-28T00:46:57.022Z,10.80
2018-11-28T00:49:28.278Z,7.97
2018-11-28T00:51:59.649Z,12.80
2018-11-28T00:54:30.809Z,13.57
2018-11-28T00:57:02.146Z,10.00
2018-11-28T00:59:33.511Z,9.60
2018-11-28T01:02:04.991Z,9.33
2018-11-28T01:04:36.281Z,9.40
2018-11-28T01:07:07.898Z,13.33
2018-11-28T01:09:39.050Z,11.50
2018-11-28T01:12:10.421Z,9.63
2018-11-28T01:14:41.653Z,8.40
2018-11-28T01:17:13.894Z,9.60
2018-11-28T01:19:44.900Z,10.00
2018-11-28T01:22:16.326Z,9.53
2018-11-28T01:24:47.470Z,10.73
2018-11-28T01:27:19.046Z,6.93
2018-11-28T01:29:50.166Z,9.33
2018-11-28T01:32:22.214Z,9.63
2018-11-28T01:34:53.507Z,11.23
2018-11-28T01:37:25.580Z,8.50
2018-11-28T01:39:56.818Z,8.73
2018-11-28T01:42:29.304Z,7.33
2018-11-28T01:45:02.890Z,11.23
2018-11-28T01:47:34.382Z,8.80
2018-11-28T01:50:08.281Z,8.10
2018-11-28T01:52:39.963Z,10.07
2018-11-28T01:55:13.026Z,9.53
2018-11-28T01:57:44.490Z,10.07
2018-11-28T02:00:21.386Z,10.70
2018-11-28T02:02:57.610Z,13.20
2018-11-28T02:05:29.847Z,8.20
2018-11-28T02:08:01.434Z,8.27
2018-11-28T02:10:32.580Z,12.80
2018-11-28T02:13:03.951Z,10.37
2018-11-28T02:16:03.885Z,8.33
2018-11-28T02:19:16.166Z,8.23
2018-11-28T02:21:48.071Z,15.03
2018-11-28T02:24:19.749Z,8.87
2018-11-28T02:26:51.059Z,10.83
2018-11-28T02:29:22.904Z,8.30
2018-11-28T02:31:54.231Z,8.60
2018-11-28T02:34:25.584Z,8.50
2018-11-28T02:36:57.234Z,8.47
2018-11-28T02:39:28.799Z,7.90
2018-11-28T02:42:00.299Z,9.73
2018-11-28T02:44:33.448Z,9.30
2018-11-28T02:47:04.617Z,10.43
2018-11-28T02:49:36.610Z,9.33
2018-11-28T02:52:08.247Z,10.40
2018-11-28T02:54:39.470Z,24.27
2018-11-28T02:57:11.249Z,10.73
2018-11-28T02:59:43.906Z,11.50
2018-11-28T03:02:15.327Z,12.20
2018-11-28T03:04:47.181Z,15.27
2018-11-28T03:07:18.458Z,9.53
2018-11-28T03:09:50.098Z,9.43
2018-11-28T03:12:21.170Z,8.47
2018-11-28T03:14:52.680Z,8.90
2018-11-28T03:17:27.058Z,11.20
2018-11-28T03:19:58.587Z,10.03
2018-11-28T03:22:29.615Z,8.50
2018-11-28T03:25:01.088Z,7.90
2018-11-28T03:27:32.506Z,14.00
2018-11-28T03:30:05.376Z,15.80
2018-11-28T03:32:37.101Z,13.67
2018-11-28T03:35:09.654Z,12.90
2018-11-28T03:37:41.285Z,16.70
2018-11-28T03:40:12.974Z,8.53
2018-11-28T03:42:44.270Z,18.90
2018-11-28T03:45:17.878Z,29.97
2018-11-28T03:47:48.914Z,27.93
2018-11-28T03:50:20.892Z,34.60
2018-11-28T03:52:52.301Z,21.07
2018-11-28T03:55:23.783Z,21.73
2018-11-28T03:57:55.167Z,24.40
2018-11-28T04:00:27.470Z,35.00
2018-11-28T04:02:58.604Z,24.23
2018-11-28T04:05:31.250Z,29.30
2018-11-28T04:08:03.586Z,32.97
2018-11-28T04:10:34.718Z,33.03
2018-11-28T04:13:08.310Z,28.57
2018-11-28T04:15:39.727Z,22.90
2018-11-28T04:18:10.885Z,25.40
2018-11-28T04:20:42.065Z,25.83
2018-11-28T04:23:13.399Z,24.70
2018-11-28T04:25:45.427Z,20.10
2018-11-28T04:28:17.084Z,27.07
2018-11-28T04:30:48.531Z,24.47
2018-11-28T04:33:19.953Z,23.23
2018-11-28T04:35:51.352Z,23.10
2018-11-28T04:38:22.758Z,21.10
2018-11-28T04:40:54.161Z,22.63
2018-11-28T04:43:25.454Z,22.37
2018-11-28T04:45:57.338Z,24.70
2018-11-28T04:48:28.631Z,19.40
2018-11-28T04:51:00.095Z,25.33
2018-11-28T04:53:31.298Z,22.20
2018-11-28T04:56:02.450Z,24.93
2018-11-28T04:58:33.762Z,27.63
2018-11-28T05:01:06.822Z,25.30
2018-11-28T05:03:37.958Z,18.60
2018-11-28T05:06:09.179Z,21.10
2018-11-28T05:08:40.407Z,23.70
2018-11-28T05:11:11.787Z,26.10
2018-11-28T05:13:43.047Z,16.40
2018-11-28T05:16:15.085Z,29.80
2018-11-28T05:18:46.135Z,18.80
2018-11-28T05:21:17.386Z,23.53
2018-11-28T05:23:48.543Z,25.10
2018-11-28T05:26:20.151Z,29.27
2018-11-28T05:28:51.238Z,23.90
2018-11-28T05:31:22.661Z,24.70
2018-11-28T05:33:53.818Z,28.33
2018-11-28T05:36:25.296Z,19.03
2018-11-28T05:38:56.546Z,19.30
2018-11-28T05:41:27.605Z,26.33
2018-11-28T05:43:58.838Z,23.67
2018-11-28T05:46:31.310Z,25.07
2018-11-28T05:49:03.010Z,31.13
2018-11-28T05:51:34.342Z,27.43
2018-11-28T05:54:05.974Z,18.67
2018-11-28T05:56:37.333Z,24.33
2018-11-28T05:59:08.678Z,14.50
2018-11-28T06:01:40.713Z,17.70
2018-11-28T06:04:11.807Z,14.40
2018-11-28T06:06:43.264Z,11.30
2018-11-28T06:09:14.514Z,13.40
2018-11-28T06:11:45.747Z,16.03
2018-11-28T06:14:17.069Z,13.23
2018-11-28T06:16:48.623Z,11.20
2018-11-28T06:19:19.761Z,9.53
2018-11-28T06:21:50.896Z,7.77
2018-11-28T06:24:22.187Z,10.93
2018-11-28T06:26:53.582Z,8.20
2018-11-28T06:29:24.853Z,15.37
2018-11-28T06:31:56.909Z,11.33
2018-11-28T06:34:27.877Z,10.67
2018-11-28T06:36:58.979Z,10.30
2018-11-28T06:39:30.167Z,9.93
2018-11-28T06:42:01.709Z,6.67
2018-11-28T06:44:32.951Z,7.70
2018-11-28T06:47:06.243Z,10.93
2018-11-28T06:49:37.422Z,7.83
2018-11-28T06:52:09.538Z,11.00
2018-11-28T06:54:40.471Z,11.30
2018-11-28T06:57:12.022Z,6.90
2018-11-28T06:59:43.130Z,8.93
2018-11-28T07:02:14.826Z,7.33
2018-11-28T07:04:45.870Z,10.03
2018-11-28T07:07:17.858Z,11.77
2018-11-28T07:09:49.095Z,8.10
2018-11-28T07:12:20.526Z,12.33
2018-11-28T07:14:51.723Z,8.40
2018-11-28T07:17:23.018Z,8.37
2018-11-28T07:19:54.154Z,7.97
2018-11-28T07:22:25.614Z,8.27
2018-11-28T07:24:56.870Z,9.60
2018-11-28T07:27:28.599Z,12.43
2018-11-28T07:29:59.702Z,6.80
2018-11-28T07:32:31.026Z,9.77
2018-11-28T07:35:02.119Z,12.90
2018-11-28T07:37:33.762Z,8.57
2018-11-28T07:40:05.666Z,11.10
2018-11-28T07:42:37.153Z,10.10
2018-11-28T07:45:14.558Z,10.40
2018-11-28T07:47:47.129Z,11.03
2018-11-28T07:50:18.362Z,9.40
2018-11-28T07:52:49.742Z,10.23
2018-11-28T07:55:21.824Z,12.77
2018-11-28T07:57:53.686Z,14.83
2018-11-28T08:00:25.020Z,9.53
2018-11-28T08:02:56.210Z,10.53
2018-11-28T08:05:27.552Z,10.40
2018-11-28T08:07:58.711Z,8.80
2018-11-28T08:10:30.039Z,7.80
2018-11-28T08:13:02.500Z,10.17
2018-11-28T08:15:33.895Z,9.20
2018-11-28T08:18:05.459Z,7.83
2018-11-28T08:20:36.603Z,9.70
2018-11-28T08:23:08.980Z,8.47
2018-11-28T08:25:40.071Z,7.60
2018-11-28T08:28:11.374Z,10.27
2018-11-28T08:30:42.287Z,8.60
2018-11-28T08:33:13.444Z,10.57
2018-11-28T08:35:44.584Z,7.57
2018-11-28T08:38:16.024Z,7.13
2018-11-28T08:40:47.118Z,13.30
2018-11-28T08:43:18.628Z,13.13
2018-11-28T08:45:49.710Z,6.43
2018-11-28T08:48:21.310Z,7.73
2018-11-28T08:50:52.347Z,16.60
2018-11-28T08:53:24.750Z,8.37
2018-11-28T08:55:57.369Z,7.60
2018-11-28T08:58:28.743Z,7.53
2018-11-28T09:00:59.850Z,12.80
2018-11-28T09:03:31.318Z,9.67
2018-11-28T09:06:04.303Z,8.30
2018-11-28T09:08:35.793Z,8.20
2018-11-28T09:11:07.035Z,7.87
2018-11-28T09:13:38.565Z,9.30
2018-11-28T09:16:10.079Z,8.70
2018-11-28T09:18:41.554Z,11.00
2018-11-28T09:21:12.746Z,9.23
2018-11-28T09:23:44.474Z,7.70
2018-11-28T09:26:19.229Z,8.57
2018-11-28T09:28:51.076Z,8.47
2018-11-28T09:31:22.334Z,12.53
2018-11-28T09:33:53.709Z,10.10
2018-11-28T09:36:24.894Z,12.60
2018-11-28T09:38:56.225Z,9.33
2018-11-28T09:41:27.483Z,12.00
2018-11-28T09:43:58.955Z,10.03
2018-11-28T09:46:30.206Z,8.90
2018-11-28T09:49:01.527Z,10.63
2018-11-28T09:51:32.770Z,8.70
2018-11-28T09:54:04.326Z,10.23
2018-11-28T09:56:36.346Z,10.60
2018-11-28T09:59:07.864Z,9.60
2018-11-28T10:01:39.167Z,8.70
2018-11-28T10:04:10.575Z,15.10
2018-11-28T10:06:41.583Z,8.53
2018-11-28T10:09:13.242Z,10.70
2018-11-28T10:11:44.191Z,9.10
2018-11-28T10:14:15.782Z,10.53
2018-11-28T10:16:47.243Z,8.87
2018-11-28T10:19:18.474Z,9.27
2018-11-28T10:21:49.481Z,10.00
2018-11-28T10:24:20.739Z,12.50
2018-11-28T10:26:51.723Z,10.07
2018-11-28T10:29:22.999Z,11.40
2018-11-28T10:31:54.190Z,10.70
2018-11-28T10:34:29.486Z,10.03
2018-11-28T10:36:57.019Z,11.80
2018-11-28T10:39:28.354Z,15.50
2018-11-28T10:41:59.515Z,11.27
2018-11-28T10:44:33.259Z,15.53
2018-11-28T10:47:04.354Z,11.13
2018-11-28T10:49:35.810Z,10.70
2018-11-28T10:52:07.154Z,10.80
2018-11-28T10:54:39.002Z,11.53
2018-11-28T10:57:11.465Z,12.00
2018-11-28T10:59:43.174Z,11.07
2018-11-28T11:02:19.306Z,12.27
2018-11-28T11:04:55.497Z,16.20
2018-11-28T11:07:31.498Z,13.13
2018-11-28T11:10:08.547Z,11.60
2018-11-28T11:12:44.735Z,11.47
2018-11-28T11:15:16.367Z,10.40
2018-11-28T11:17:47.526Z,11.97
2018-11-28T11:20:19.324Z,11.60
2018-11-28T11:22:51.159Z,11.37
2018-11-28T11:25:22.842Z,10.40
2018-11-28T11:27:54.705Z,12.43
2018-11-28T11:30:26.166Z,16.63
2018-11-28T11:32:57.319Z,11.00
2018-11-28T11:35:28.654Z,15.10
2018-11-28T11:38:00.056Z,11.53
2018-11-28T11:40:31.223Z,11.47
2018-11-28T11:43:02.899Z,12.07
2018-11-28T11:45:34.273Z,11.00
2018-11-28T11:48:05.430Z,11.53
2018-11-28T11:50:37.030Z,11.10
2018-11-28T11:53:08.523Z,10.70
2018-11-28T11:55:40.107Z,11.53
2018-11-28T11:58:13.165Z,13.33
2018-11-28T12:00:45.772Z,11.63
2018-11-28T12:03:17.036Z,11.43
2018-11-28T12:05:52.023Z,12.50
2018-11-28T12:08:23.699Z,12.40
2018-11-28T12:10:55.583Z,11.67
2018-11-28T12:13:27.200Z,11.47
2018-11-28T12:15:58.894Z,11.80
2018-11-28T12:18:30.304Z,11.80
2018-11-28T12:21:04.558Z,13.90
2018-11-28T12:23:35.730Z,11.27
2018-11-28T12:26:09.022Z,12.83
2018-11-28T12:28:40.391Z,11.70
2018-11-28T12:31:11.803Z,13.60
2018-11-28T12:33:43.043Z,12.70
2018-11-28T12:36:14.363Z,12.60
2018-11-28T12:38:47.288Z,14.10
2018-11-28T12:41:19.807Z,13.40
2018-11-28T12:43:51.043Z,12.90
2018-11-28T12:46:22.636Z,13.17
2018-11-28T12:48:54.655Z,13.60
2018-11-28T12:51:26.468Z,13.07
2018-11-28T12:53:57.858Z,12.90
2018-11-28T12:56:29.386Z,13.67
2018-11-28T12:59:02.274Z,13.57
2018-11-28T13:01:33.754Z,13.70
2018-11-28T13:04:05.031Z,12.67
2018-11-28T13:06:36.354Z,15.43
2018-11-28T13:09:08.914Z,12.67
2018-11-28T13:11:40.204Z,13.40
2018-11-28T13:14:11.482Z,14.13
2018-11-28T13:16:43.022Z,13.03
2018-11-28T13:19:14.414Z,13.80
2018-11-28T13:21:46.010Z,12.63
2018-11-28T13:24:17.194Z,13.97
2018-11-28T13:26:48.286Z,13.27
2018-11-28T13:29:19.226Z,14.43
2018-11-28T13:31:50.998Z,13.90
2018-11-28T13:34:21.927Z,14.90
2018-11-28T13:36:53.355Z,14.60
2018-11-28T13:39:24.366Z,15.90
2018-11-28T13:41:55.942Z,14.60
2018-11-28T13:44:27.457Z,15.33
2018-11-28T13:46:58.983Z,16.20
2018-11-28T13:49:29.974Z,15.47
2018-11-28T13:52:02.816Z,17.60
2018-11-28T13:55:36.464Z,16.33
2018-11-28T13:57:06.969Z,15.87
2018-11-28T13:59:37.695Z,15.53
2018-11-28T14:02:09.002Z,14.73
2018-11-28T14:04:40.376Z,15.83
2018-11-28T14:07:11.874Z,14.53
2018-11-28T14:09:43.109Z,15.03
2018-11-28T14:12:14.569Z,14.97
2018-11-28T14:14:45.894Z,16.73
2018-11-28T14:17:17.581Z,16.00
2018-11-28T14:19:49.325Z,16.50
2018-11-28T14:22:33.221Z,15.40
2018-11-28T14:25:05.047Z,17.00
2018-11-28T14:27:36.347Z,17.83
2018-11-28T14:30:11.258Z,18.37
2018-11-28T14:32:42.951Z,16.37
2018-11-28T14:35:14.390Z,16.17
2018-11-28T14:37:45.875Z,15.97
2018-11-28T14:40:18.591Z,18.70
2018-11-28T14:42:52.746Z,18.03
2018-11-28T14:45:24.100Z,18.03
2018-11-28T14:47:56.628Z,18.27
2018-11-28T14:50:29.554Z,18.77
2018-11-28T14:53:04.563Z,18.23
2018-11-28T14:55:37.110Z,18.67
2018-11-28T14:58:09.794Z,19.20
2018-11-28T15:00:41.781Z,17.53
2018-11-28T15:03:19.309Z,17.93
2018-11-28T15:06:13.919Z,18.03
2018-11-28T15:08:45.390Z,18.13
2018-11-28T15:11:16.787Z,18.30
2018-11-28T15:13:48.306Z,17.23
2018-11-28T15:16:19.303Z,19.13
2018-11-28T15:18:50.546Z,19.23
2018-11-28T15:21:21.754Z,20.50
2018-11-28T15:23:53.454Z,18.13
2018-11-28T15:26:24.612Z,18.57
2018-11-28T15:28:56.478Z,20.67
2018-11-28T15:31:27.863Z,19.03
2018-11-28T15:33:59.559Z,19.13
2018-11-28T15:36:30.967Z,18.40
2018-11-28T15:39:02.322Z,19.17
2018-11-28T15:41:33.450Z,18.53
2018-11-28T15:44:04.982Z,20.33
2018-11-28T15:46:36.244Z,20.40
2018-11-28T15:49:07.858Z,19.87
2018-11-28T15:51:38.897Z,18.97
2018-11-28T15:54:10.264Z,18.40
2018-11-28T15:56:41.509Z,18.37
2018-11-28T15:59:12.967Z,19.60
2018-11-28T16:01:45.245Z,18.37
2018-11-28T16:04:17.718Z,19.10
2018-11-28T16:06:49.297Z,18.77
2018-11-28T16:09:26.192Z,19.67
2018-11-28T16:11:57.349Z,20.60
2018-11-28T16:14:28.590Z,21.63
2018-11-28T16:16:59.820Z,19.90
2018-11-28T16:19:31.269Z,19.80
2018-11-28T16:22:02.466Z,20.30
2018-11-28T16:24:34.275Z,18.83
2018-11-28T16:27:06.507Z,19.63
2018-11-28T16:29:37.962Z,20.97
2018-11-28T16:32:09.218Z,17.47
2018-11-28T16:34:42.046Z,20.20
2018-11-28T16:37:13.459Z,18.37
2018-11-28T16:39:44.897Z,20.03
2018-11-28T16:42:16.053Z,19.20
2018-11-28T16:44:47.369Z,18.40
2018-11-28T16:47:18.409Z,19.10
2018-11-28T16:49:50.640Z,19.90
2018-11-28T16:52:22.209Z,18.77
2018-11-28T16:54:53.697Z,17.50
2018-11-28T16:57:24.725Z,17.37
2018-11-28T16:59:56.512Z,18.80
2018-11-28T17:02:28.535Z,18.53
2018-11-28T17:04:59.841Z,18.00
2018-11-28T17:07:31.012Z,17.77
2018-11-28T17:10:02.443Z,19.50
2018-11-28T17:12:33.678Z,17.20
2018-11-28T17:15:04.897Z,17.30
2018-11-28T17:17:36.040Z,18.00
2018-11-28T17:20:11.100Z,16.83
2018-11-28T17:22:42.236Z,19.30
2018-11-28T17:25:18.482Z,17.70
2018-11-28T17:27:49.720Z,17.33
2018-11-28T17:30:28.085Z,18.60
2018-11-28T17:32:59.063Z,18.43
2018-11-28T17:35:30.929Z,16.93
2018-11-28T17:38:01.955Z,18.27
2018-11-28T17:40:33.275Z,17.30
2018-11-28T17:43:06.801Z,17.53
2018-11-28T17:45:38.533Z,19.20
2018-11-28T17:48:09.873Z,19.30
2018-11-28T17:50:41.189Z,20.30
2018-11-28T17:53:14.134Z,21.47
2018-11-28T17:55:52.491Z,20.20
2018-11-28T17:58:23.485Z,19.87
2018-11-28T18:00:54.957Z,20.07
2018-11-28T18:03:27.229Z,19.57
2018-11-28T18:05:59.037Z,22.53
2018-11-28T18:08:30.058Z,20.97
2018-11-28T18:11:10.308Z,21.63
2018-11-28T18:13:41.576Z,19.83
2018-11-28T18:16:13.064Z,20.13
2018-11-28T18:18:44.131Z,27.63
2018-11-28T18:21:15.462Z,22.73
2018-11-28T18:23:46.734Z,20.77
2018-11-28T18:26:18.314Z,21.03
2018-11-28T18:28:49.520Z,20.03
2018-11-28T18:31:21.947Z,20.57
2018-11-28T18:33:53.051Z,20.10
2018-11-28T18:36:24.540Z,20.63
2018-11-28T18:38:55.629Z,20.37
2018-11-28T18:41:27.200Z,21.03
2018-11-28T18:43:58.585Z,20.83
2018-11-28T18:46:30.074Z,21.13
2018-11-28T18:49:02.223Z,20.90
2018-11-28T18:51:33.637Z,21.93
2018-11-28T18:54:05.964Z,20.90
2018-11-28T18:56:37.293Z,22.17
2018-11-28T18:59:08.494Z,22.30
2018-11-28T19:01:40.201Z,22.17
2018-11-28T19:04:13.343Z,23.80
2018-11-28T19:06:44.842Z,24.40
2018-11-28T19:09:20.629Z,26.07
2018-11-28T19:11:52.425Z,24.23
2018-11-28T19:14:23.602Z,24.37
2018-11-28T19:16:56.451Z,24.80
2018-11-28T19:19:27.908Z,25.07
2018-11-28T19:21:59.345Z,24.50
2018-11-28T19:24:30.806Z,26.20
2018-11-28T19:27:02.734Z,27.90
2018-11-28T19:29:34.318Z,23.03
2018-11-28T19:32:05.721Z,22.03
2018-11-28T19:34:37.518Z,23.70
2018-11-28T19:37:09.034Z,22.57
2018-11-28T19:39:40.308Z,22.87
2018-11-28T19:42:11.629Z,22.00
2018-11-28T19:44:42.954Z,22.73
2018-11-28T19:47:14.462Z,21.87
2018-11-28T19:49:45.805Z,21.27
2018-11-28T19:52:17.253Z,23.77
2018-11-28T19:54:48.587Z,23.43
2018-11-28T19:57:19.752Z,21.47
2018-11-28T19:59:51.069Z,22.60
2018-11-28T20:02:22.378Z,23.00
2018-11-28T20:04:54.512Z,25.40
2018-11-28T20:07:25.829Z,23.50
2018-11-28T20:09:58.671Z,23.33
2018-11-28T20:12:30.502Z,27.23
2018-11-28T20:15:01.439Z,25.13
2018-11-28T20:17:33.214Z,22.93
2018-11-28T20:20:04.173Z,25.60
2018-11-28T20:22:35.622Z,23.60
2018-11-28T20:25:07.849Z,25.07
2018-11-28T20:27:38.884Z,24.13
2018-11-28T20:30:19.567Z,23.37
2018-11-28T20:32:51.270Z,25.30
2018-11-28T20:35:22.428Z,26.10
2018-11-28T20:37:53.695Z,27.37
2018-11-28T20:40:24.873Z,27.37
2018-11-28T20:42:56.882Z,27.43
2018-11-28T20:45:27.935Z,28.27
2018-11-28T20:47:59.110Z,27.77
2018-11-28T20:50:33.376Z,27.80
2018-11-28T20:53:08.126Z,28.33
2018-11-28T20:55:40.689Z,29.30
2018-11-28T20:58:11.817Z,31.17
2018-11-28T21:00:43.027Z,32.90
2018-11-28T21:03:14.889Z,35.83
2018-11-28T21:05:47.933Z,33.37
2018-11-28T21:08:19.529Z,36.90
2018-11-28T21:10:50.628Z,36.10
2018-11-28T21:13:22.314Z,36.47
2018-11-28T21:15:53.449Z,37.87
2018-11-28T21:18:25.085Z,39.23
2018-11-28T21:20:56.036Z,37.13
2018-11-28T21:23:27.816Z,42.00
2018-11-28T21:25:58.841Z,39.17
2018-11-28T21:28:30.412Z,41.27
2018-11-28T21:31:01.399Z,42.30
2018-11-28T21:33:33.067Z,41.57
2018-11-28T21:36:06.508Z,43.37
2018-11-28T21:38:38.345Z,45.77
2018-11-28T21:41:09.520Z,48.73
2018-11-28T21:43:40.808Z,45.70
2018-11-28T21:46:12.068Z,49.03
2018-11-28T21:48:43.597Z,49.67
2018-11-28T21:51:14.715Z,49.97
2018-11-28T21:53:46.313Z,51.10
2018-11-28T21:56:17.868Z,53.10
2018-11-28T21:58:49.129Z,50.33
2018-11-28T22:01:20.441Z,53.30
2018-11-28T22:03:51.780Z,55.40
2018-11-28T22:06:24.197Z,52.77
2018-11-28T22:08:55.873Z,53.10
2018-11-28T22:11:27.259Z,56.07
2018-11-28T22:13:59.598Z,54.83
2018-11-28T22:16:30.770Z,55.70
2018-11-28T22:19:02.242Z,51.33
2018-11-28T22:21:33.363Z,51.87
2018-11-28T22:24:05.461Z,54.20
2018-11-28T22:26:36.821Z,51.33
2018-11-28T22:29:07.945Z,54.27
2018-11-28T22:31:39.059Z,53.13
2018-11-28T22:34:11.523Z,53.73
2018-11-28T22:36:43.384Z,55.10
2018-11-28T22:39:14.891Z,54.23
2018-11-28T22:41:45.894Z,50.80
2018-11-28T22:44:17.441Z,56.53
2018-11-28T22:46:48.525Z,55.33
2018-11-28T22:49:20.344Z,57.07
2018-11-28T22:51:51.452Z,56.03
2018-11-28T22:54:22.969Z,53.23
2018-11-28T22:56:54.134Z,52.77
2018-11-28T22:59:25.865Z,58.87
2018-11-28T23:03:04.284Z,59.77
2018-11-28T23:06:06.957Z,65.80
2018-11-28T23:08:39.185Z,65.13
2018-11-28T23:11:10.696Z,63.67
2018-11-28T23:13:41.729Z,66.57
2018-11-28T23:16:13.622Z,68.97
2018-11-28T23:18:44.553Z,65.03
2018-11-28T23:21:16.185Z,64.53
2018-11-28T23:23:47.221Z,66.97
2018-11-28T23:26:18.949Z,70.33
2018-11-28T23:28:49.913Z,70.90
2018-11-28T23:31:21.479Z,72.50
2018-11-28T23:33:52.512Z,72.03
2018-11-28T23:36:23.928Z,69.80
2018-11-28T23:38:55.415Z,72.23
2018-11-28T23:41:27.137Z,73.47
2018-11-28T23:43:58.369Z,72.83
2018-11-28T23:46:30.362Z,72.20
2018-11-28T23:49:02.925Z,76.13
2018-11-28T23:51:34.365Z,68.90
2018-11-28T23:54:06.109Z,75.17
2018-11-28T23:56:37.833Z,72.00
2018-11-28T23:59:08.878Z,73.23
